createdAt,value
2019-03-24T00:00:46.300Z,0.00
2019-03-24T00:01:46.397Z,0.00
2019-03-24T00:02:46.280Z,0.00
2019-03-24T00:03:46.270Z,0.00
2019-03-24T00:04:46.261Z,0.00
2019-03-24T00:05:46.255Z,0.00
2019-03-24T00:06:46.235Z,0.00
2019-03-24T00:07:46.377Z,0.00
2019-03-24T00:08:46.220Z,0.00
2019-03-24T00:09:46.204Z,0.00
2019-03-24T00:10:46.190Z,0.00
2019-03-24T00:11:46.184Z,0.00
2019-03-24T00:12:46.173Z,0.00
2019-03-24T00:13:46.212Z,0.00
2019-03-24T00:14:46.153Z,0.00
2019-03-24T00:15:46.144Z,0.00
2019-03-24T00:16:46.132Z,0.00
2019-03-24T00:17:46.120Z,0.00
2019-03-24T00:18:46.107Z,0.00
2019-03-24T00:19:46.199Z,0.00
2019-03-24T00:20:46.090Z,0.00
2019-03-24T00:21:46.077Z,0.00
2019-03-24T00:22:46.068Z,0.00
2019-03-24T00:23:46.058Z,0.00
2019-03-24T00:24:46.045Z,0.00
2019-03-24T00:25:46.189Z,0.00
2019-03-24T00:26:46.022Z,0.00
2019-03-24T00:27:46.012Z,0.00
2019-03-24T00:28:46.001Z,0.00
2019-03-24T00:29:45.987Z,0.00
2019-03-24T00:30:45.977Z,0.00
2019-03-24T00:31:46.020Z,0.00
2019-03-24T00:32:45.957Z,0.00
2019-03-24T00:33:45.949Z,0.00
2019-03-24T00:34:48.112Z,0.00
2019-03-24T00:35:45.925Z,0.00
2019-03-24T00:36:45.914Z,0.00
2019-03-24T00:37:45.954Z,0.00
2019-03-24T00:38:45.901Z,0.00
2019-03-24T00:39:45.881Z,0.00
2019-03-24T00:40:45.871Z,0.00
2019-03-24T00:41:45.860Z,0.00
2019-03-24T00:42:45.848Z,0.00
2019-03-24T00:43:46.038Z,0.00
2019-03-24T00:44:45.831Z,0.00
2019-03-24T00:45:45.823Z,0.00
2019-03-24T00:46:45.808Z,0.00
2019-03-24T00:47:45.798Z,0.00
2019-03-24T00:48:45.783Z,0.00
2019-03-24T00:49:45.877Z,0.00
2019-03-24T00:50:45.760Z,0.00
2019-03-24T00:51:45.756Z,0.00
2019-03-24T00:52:45.749Z,0.00
2019-03-24T00:53:45.735Z,0.00
2019-03-24T00:54:45.723Z,0.00
2019-03-24T00:55:45.754Z,0.00
2019-03-24T00:56:45.698Z,0.00
2019-03-24T00:57:45.691Z,0.00
2019-03-24T00:58:45.679Z,0.00
2019-03-24T00:59:45.666Z,0.00
2019-03-24T01:00:45.660Z,0.00
2019-03-24T01:01:45.797Z,0.00
2019-03-24T01:02:45.634Z,0.00
2019-03-24T01:03:45.625Z,0.00
2019-03-24T01:04:45.615Z,0.00
2019-03-24T01:05:45.606Z,0.00
2019-03-24T01:06:45.593Z,0.00
2019-03-24T01:07:45.631Z,0.00
2019-03-24T01:08:45.568Z,0.00
2019-03-24T01:09:45.559Z,0.00
2019-03-24T01:10:45.546Z,0.00
2019-03-24T01:11:45.538Z,0.00
2019-03-24T01:12:45.525Z,0.00
2019-03-24T01:13:45.615Z,0.00
2019-03-24T01:14:45.506Z,0.00
2019-03-24T01:15:47.886Z,5.62
2019-03-24T01:16:45.495Z,5.62
2019-03-24T01:17:45.474Z,5.62
2019-03-24T01:18:45.463Z,5.62
2019-03-24T01:19:45.606Z,11.25
2019-03-24T01:20:45.446Z,11.25
2019-03-24T01:21:45.433Z,11.25
2019-03-24T01:22:45.426Z,16.87
2019-03-24T01:23:45.403Z,16.87
2019-03-24T01:24:45.394Z,22.50
2019-03-24T01:25:45.484Z,22.50
2019-03-24T01:26:45.374Z,22.50
2019-03-24T01:27:45.359Z,28.12
2019-03-24T01:28:45.351Z,28.12
2019-03-24T01:29:45.341Z,33.75
2019-03-24T01:30:45.332Z,33.75
2019-03-24T01:31:45.371Z,39.37
2019-03-24T01:32:45.307Z,45.00
2019-03-24T01:33:45.298Z,56.25
2019-03-24T01:34:45.287Z,61.87
2019-03-24T01:35:45.277Z,73.12
2019-03-24T01:36:45.268Z,78.75
2019-03-24T01:37:45.405Z,84.37
2019-03-24T01:38:45.244Z,101.25
2019-03-24T01:39:45.234Z,129.37
2019-03-24T01:40:45.221Z,168.75
2019-03-24T01:41:45.215Z,208.12
2019-03-24T01:42:45.201Z,213.75
2019-03-24T01:43:45.244Z,196.87
2019-03-24T01:44:45.177Z,174.37
2019-03-24T01:45:45.169Z,151.87
2019-03-24T01:46:45.162Z,151.87
2019-03-24T01:47:45.148Z,140.62
2019-03-24T01:48:45.136Z,129.37
2019-03-24T01:49:45.178Z,135.00
2019-03-24T01:50:45.117Z,146.25
2019-03-24T01:51:45.106Z,163.12
2019-03-24T01:52:45.098Z,168.75
2019-03-24T01:53:45.086Z,180.00
2019-03-24T01:54:45.071Z,196.87
2019-03-24T01:55:45.213Z,230.62
2019-03-24T01:56:45.058Z,303.75
2019-03-24T01:57:45.043Z,354.37
2019-03-24T01:58:45.034Z,365.62
2019-03-24T01:59:45.021Z,371.25
2019-03-24T02:00:45.010Z,360.00
2019-03-24T02:01:45.100Z,348.75
2019-03-24T02:02:44.989Z,348.75
2019-03-24T02:03:44.981Z,343.12
2019-03-24T02:04:44.966Z,343.12
2019-03-24T02:05:44.957Z,354.37
2019-03-24T02:06:44.938Z,393.75
2019-03-24T02:07:45.029Z,450.00
2019-03-24T02:08:44.927Z,472.50
2019-03-24T02:09:44.911Z,511.87
2019-03-24T02:10:44.905Z,528.75
2019-03-24T02:11:44.889Z,545.62
2019-03-24T02:12:44.880Z,562.50
2019-03-24T02:13:45.017Z,601.87
2019-03-24T02:14:44.859Z,652.50
2019-03-24T02:15:44.848Z,708.75
2019-03-24T02:16:44.839Z,748.12
2019-03-24T02:17:44.829Z,759.37
2019-03-24T02:18:44.817Z,776.25
2019-03-24T02:19:44.853Z,826.87
2019-03-24T02:20:44.788Z,866.25
2019-03-24T02:21:44.775Z,855.00
2019-03-24T02:22:44.770Z,843.75
2019-03-24T02:23:44.758Z,838.12
2019-03-24T02:24:44.756Z,781.87
2019-03-24T02:25:44.889Z,753.75
2019-03-24T02:26:44.722Z,742.50
2019-03-24T02:27:44.720Z,810.00
2019-03-24T02:28:44.707Z,900.00
2019-03-24T02:29:44.693Z,1057.50
2019-03-24T02:30:44.681Z,1096.87
2019-03-24T02:31:44.823Z,1186.87
2019-03-24T02:32:44.660Z,1260.00
2019-03-24T02:33:44.657Z,1141.87
2019-03-24T02:34:44.637Z,1080.00
2019-03-24T02:35:44.627Z,1080.00
2019-03-24T02:36:44.620Z,1051.87
2019-03-24T02:37:44.715Z,967.50
2019-03-24T02:38:44.598Z,894.37
2019-03-24T02:39:44.586Z,877.50
2019-03-24T02:40:44.581Z,900.00
2019-03-24T02:41:44.565Z,928.12
2019-03-24T02:42:44.563Z,967.50
2019-03-24T02:43:44.594Z,1012.50
2019-03-24T02:44:44.533Z,1074.37
2019-03-24T02:45:44.524Z,1091.25
2019-03-24T02:46:44.521Z,1102.50
2019-03-24T02:47:44.503Z,1035.00
2019-03-24T02:48:44.488Z,1040.62
2019-03-24T02:49:44.679Z,1040.62
2019-03-24T02:50:44.471Z,1040.62
2019-03-24T02:51:44.457Z,1018.12
2019-03-24T02:52:44.446Z,995.62
2019-03-24T02:53:44.439Z,1018.12
2019-03-24T02:54:44.423Z,1029.37
2019-03-24T02:55:44.458Z,984.37
2019-03-24T02:56:44.400Z,995.62
2019-03-24T02:57:44.397Z,967.50
2019-03-24T02:58:44.383Z,883.12
2019-03-24T02:59:44.375Z,793.12
2019-03-24T03:00:44.358Z,720.00
2019-03-24T03:01:44.446Z,691.87
2019-03-24T03:02:44.342Z,759.37
2019-03-24T03:03:44.329Z,922.50
2019-03-24T03:04:44.333Z,973.12
2019-03-24T03:05:44.314Z,894.37
2019-03-24T03:06:44.298Z,815.62
2019-03-24T03:07:44.483Z,736.87
2019-03-24T03:08:44.270Z,624.37
2019-03-24T03:09:44.262Z,556.87
2019-03-24T03:10:44.250Z,511.87
2019-03-24T03:11:44.245Z,495.00
2019-03-24T03:12:44.249Z,489.37
2019-03-24T03:13:44.272Z,478.12
2019-03-24T03:14:44.205Z,478.12
2019-03-24T03:15:44.200Z,472.50
2019-03-24T03:16:44.190Z,472.50
2019-03-24T03:17:44.182Z,466.87
2019-03-24T03:18:44.169Z,466.87
2019-03-24T03:19:44.202Z,472.50
2019-03-24T03:20:44.145Z,461.25
2019-03-24T03:21:44.137Z,466.87
2019-03-24T03:22:44.129Z,466.87
2019-03-24T03:23:44.119Z,466.87
2019-03-24T03:24:44.104Z,461.25
2019-03-24T03:25:44.493Z,461.25
2019-03-24T03:26:44.083Z,461.25
2019-03-24T03:27:44.089Z,455.62
2019-03-24T03:28:44.071Z,455.62
2019-03-24T03:29:44.052Z,455.62
2019-03-24T03:30:44.044Z,455.62
2019-03-24T03:31:44.133Z,450.00
2019-03-24T03:32:44.020Z,450.00
2019-03-24T03:33:44.007Z,450.00
2019-03-24T03:34:44.003Z,444.37
2019-03-24T03:35:43.988Z,444.37
2019-03-24T03:36:43.993Z,444.37
2019-03-24T03:37:44.293Z,438.75
2019-03-24T03:38:43.959Z,438.75
2019-03-24T03:39:43.948Z,438.75
2019-03-24T03:40:43.934Z,438.75
2019-03-24T03:41:43.924Z,433.12
2019-03-24T03:42:43.915Z,427.50
2019-03-24T03:43:44.152Z,427.50
2019-03-24T03:44:43.893Z,433.12
2019-03-24T03:45:43.876Z,427.50
2019-03-24T03:46:52.348Z,427.50
2019-03-24T03:47:44.953Z,427.50
2019-03-24T03:48:43.845Z,427.50
2019-03-24T03:49:43.886Z,427.50
2019-03-24T03:50:43.824Z,427.50
2019-03-24T03:51:43.814Z,421.87
2019-03-24T03:52:43.803Z,421.87
2019-03-24T03:53:43.790Z,421.87
2019-03-24T03:54:43.781Z,421.87
2019-03-24T03:55:43.878Z,421.87
2019-03-24T03:56:43.774Z,416.25
2019-03-24T03:57:43.763Z,416.25
2019-03-24T03:58:43.738Z,416.25
2019-03-24T03:59:43.729Z,416.25
2019-03-24T04:00:43.724Z,410.62
2019-03-24T04:01:43.855Z,410.62
2019-03-24T04:02:43.707Z,405.00
2019-03-24T04:03:43.681Z,405.00
2019-03-24T04:04:43.678Z,405.00
2019-03-24T04:05:43.668Z,405.00
2019-03-24T04:06:43.654Z,399.37
2019-03-24T04:07:43.743Z,399.37
2019-03-24T04:08:43.630Z,399.37
2019-03-24T04:09:43.622Z,399.37
2019-03-24T04:10:43.613Z,399.37
2019-03-24T04:11:43.610Z,393.75
2019-03-24T04:12:43.597Z,393.75
2019-03-24T04:13:43.628Z,393.75
2019-03-24T04:14:43.577Z,393.75
2019-03-24T04:15:43.557Z,388.12
2019-03-24T04:16:43.548Z,388.12
2019-03-24T04:17:43.540Z,388.12
2019-03-24T04:18:43.533Z,388.12
2019-03-24T04:19:43.674Z,382.50
2019-03-24T04:20:43.520Z,382.50
2019-03-24T04:21:43.497Z,382.50
2019-03-24T04:22:43.480Z,376.87
2019-03-24T04:23:43.478Z,376.87
2019-03-24T04:24:43.477Z,371.25
2019-03-24T04:25:43.505Z,371.25
2019-03-24T04:26:43.446Z,371.25
2019-03-24T04:27:43.436Z,371.25
2019-03-24T04:28:43.422Z,371.25
2019-03-24T04:29:43.415Z,365.62
2019-03-24T04:30:43.479Z,365.62
2019-03-24T04:31:43.443Z,365.62
2019-03-24T04:32:43.380Z,360.00
2019-03-24T04:33:43.371Z,360.00
2019-03-24T04:34:43.357Z,360.00
2019-03-24T04:35:43.349Z,360.00
2019-03-24T04:36:43.336Z,360.00
2019-03-24T04:37:43.536Z,354.37
2019-03-24T04:38:43.313Z,354.37
2019-03-24T04:39:43.306Z,348.75
2019-03-24T04:40:43.294Z,348.75
2019-03-24T04:41:43.291Z,348.75
2019-03-24T04:42:43.275Z,348.75
2019-03-24T04:43:43.313Z,343.12
2019-03-24T04:44:43.247Z,343.12
2019-03-24T04:45:43.238Z,343.12
2019-03-24T04:46:43.232Z,343.12
2019-03-24T04:47:43.221Z,337.50
2019-03-24T04:48:43.209Z,337.50
2019-03-24T04:49:43.299Z,337.50
2019-03-24T04:50:43.188Z,337.50
2019-03-24T04:51:43.181Z,337.50
2019-03-24T04:52:43.168Z,337.50
2019-03-24T04:53:43.153Z,331.87
2019-03-24T04:54:43.147Z,331.87
2019-03-24T04:55:43.334Z,331.87
2019-03-24T04:56:43.124Z,326.25
2019-03-24T04:57:43.121Z,326.25
2019-03-24T04:58:43.101Z,326.25
2019-03-24T04:59:43.091Z,326.25
2019-03-24T05:00:43.073Z,320.62
2019-03-24T05:01:43.119Z,320.62
2019-03-24T05:02:43.061Z,320.62
2019-03-24T05:03:43.050Z,315.00
2019-03-24T05:04:43.035Z,315.00
2019-03-24T05:05:43.031Z,315.00
2019-03-24T05:06:43.016Z,309.37
2019-03-24T05:07:43.055Z,309.37
2019-03-24T05:08:42.995Z,309.37
2019-03-24T05:09:42.982Z,309.37
2019-03-24T05:10:42.972Z,309.37
2019-03-24T05:11:42.961Z,303.75
2019-03-24T05:12:42.949Z,303.75
2019-03-24T05:13:43.090Z,303.75
2019-03-24T05:14:42.931Z,298.12
2019-03-24T05:15:42.927Z,298.12
2019-03-24T05:16:42.909Z,298.12
2019-03-24T05:17:42.900Z,292.50
2019-03-24T05:18:42.888Z,292.50
2019-03-24T05:19:42.925Z,292.50
2019-03-24T05:20:42.866Z,286.87
2019-03-24T05:21:42.857Z,286.87
2019-03-24T05:22:42.847Z,286.87
2019-03-24T05:23:42.831Z,286.87
2019-03-24T05:24:42.817Z,281.25
2019-03-24T05:25:42.915Z,281.25
2019-03-24T05:26:42.809Z,275.62
2019-03-24T05:27:42.792Z,270.00
2019-03-24T05:28:42.778Z,270.00
2019-03-24T05:29:42.768Z,270.00
2019-03-24T05:30:42.799Z,264.37
2019-03-24T05:31:42.893Z,264.37
2019-03-24T05:32:42.736Z,264.37
2019-03-24T05:33:42.729Z,258.75
2019-03-24T05:34:42.715Z,258.75
2019-03-24T05:35:42.709Z,258.75
2019-03-24T05:36:42.705Z,253.12
2019-03-24T05:37:42.730Z,253.12
2019-03-24T05:38:42.673Z,253.12
2019-03-24T05:39:42.666Z,253.12
2019-03-24T05:40:42.655Z,253.12
2019-03-24T05:41:42.646Z,253.12
2019-03-24T05:42:42.640Z,253.12
2019-03-24T05:43:42.719Z,253.12
2019-03-24T05:44:42.619Z,253.12
2019-03-24T05:45:42.606Z,253.12
2019-03-24T05:46:42.593Z,253.12
2019-03-24T05:47:42.577Z,253.12
2019-03-24T05:48:42.572Z,253.12
2019-03-24T05:49:42.713Z,253.12
2019-03-24T05:50:42.547Z,253.12
2019-03-24T05:51:42.533Z,253.12
2019-03-24T05:52:42.525Z,253.12
2019-03-24T05:53:42.515Z,253.12
2019-03-24T05:54:42.503Z,247.50
2019-03-24T05:55:42.594Z,247.50
2019-03-24T05:56:42.486Z,247.50
2019-03-24T05:57:42.472Z,247.50
2019-03-24T05:58:42.462Z,247.50
2019-03-24T05:59:42.455Z,247.50
2019-03-24T06:00:42.440Z,247.50
2019-03-24T06:01:42.477Z,247.50
2019-03-24T06:02:42.421Z,247.50
2019-03-24T06:03:42.406Z,241.87
2019-03-24T06:04:42.402Z,241.87
2019-03-24T06:05:42.389Z,241.87
2019-03-24T06:06:42.373Z,241.87
2019-03-24T06:07:42.519Z,241.87
2019-03-24T06:08:42.361Z,241.87
2019-03-24T06:09:42.345Z,241.87
2019-03-24T06:10:42.337Z,241.87
2019-03-24T06:11:42.324Z,241.87
2019-03-24T06:12:42.311Z,241.87
2019-03-24T06:13:42.353Z,241.87
2019-03-24T06:14:42.289Z,241.87
2019-03-24T06:15:42.278Z,241.87
2019-03-24T06:16:42.267Z,241.87
2019-03-24T06:17:47.713Z,241.87
2019-03-24T06:18:42.250Z,241.87
2019-03-24T06:19:42.282Z,241.87
2019-03-24T06:20:42.226Z,241.87
2019-03-24T06:21:42.213Z,236.25
2019-03-24T06:22:42.206Z,236.25
2019-03-24T06:23:42.192Z,236.25
2019-03-24T06:24:42.187Z,236.25
2019-03-24T06:25:42.325Z,236.25
2019-03-24T06:26:42.158Z,236.25
2019-03-24T06:27:42.152Z,236.25
2019-03-24T06:28:42.139Z,236.25
2019-03-24T06:29:42.128Z,236.25
2019-03-24T06:30:42.117Z,236.25
2019-03-24T06:31:42.154Z,236.25
2019-03-24T06:32:42.095Z,236.25
2019-03-24T06:33:42.087Z,236.25
2019-03-24T06:34:42.074Z,236.25
2019-03-24T06:35:42.056Z,236.25
2019-03-24T06:36:42.053Z,236.25
2019-03-24T06:37:42.094Z,236.25
2019-03-24T06:38:42.023Z,236.25
2019-03-24T06:39:42.019Z,236.25
2019-03-24T06:40:42.005Z,230.62
2019-03-24T06:41:41.997Z,230.62
2019-03-24T06:42:41.982Z,230.62
2019-03-24T06:43:42.129Z,230.62
2019-03-24T06:44:41.964Z,230.62
2019-03-24T06:45:41.949Z,230.62
2019-03-24T06:46:41.951Z,230.62
2019-03-24T06:47:41.928Z,230.62
2019-03-24T06:48:41.915Z,230.62
2019-03-24T06:49:41.962Z,230.62
2019-03-24T06:50:41.899Z,230.62
2019-03-24T06:51:41.880Z,230.62
2019-03-24T06:52:41.874Z,230.62
2019-03-24T06:53:41.864Z,230.62
2019-03-24T06:54:41.851Z,230.62
2019-03-24T06:55:41.936Z,230.62
2019-03-24T06:56:41.828Z,230.62
2019-03-24T06:57:41.818Z,230.62
2019-03-24T06:58:41.802Z,230.62
2019-03-24T06:59:41.797Z,230.62
2019-03-24T07:00:41.781Z,230.62
2019-03-24T07:01:41.922Z,230.62
2019-03-24T07:02:41.767Z,230.62
2019-03-24T07:03:41.759Z,230.62
2019-03-24T07:04:41.740Z,230.62
2019-03-24T07:05:41.731Z,230.62
2019-03-24T07:06:41.721Z,230.62
2019-03-24T07:07:41.760Z,230.62
2019-03-24T07:08:41.697Z,230.62
2019-03-24T07:09:41.685Z,230.62
2019-03-24T07:10:41.671Z,230.62
2019-03-24T07:11:41.658Z,230.62
2019-03-24T07:12:41.650Z,230.62
2019-03-24T07:13:41.741Z,230.62
2019-03-24T07:14:41.632Z,230.62
2019-03-24T07:15:41.622Z,230.62
2019-03-24T07:16:41.608Z,230.62
2019-03-24T07:17:41.594Z,230.62
2019-03-24T07:18:41.585Z,230.62
2019-03-24T07:19:41.729Z,230.62
2019-03-24T07:20:41.565Z,230.62
2019-03-24T07:21:41.549Z,230.62
2019-03-24T07:22:41.537Z,225.00
2019-03-24T07:23:41.526Z,225.00
2019-03-24T07:24:41.521Z,225.00
2019-03-24T07:25:41.557Z,225.00
2019-03-24T07:26:41.497Z,225.00
2019-03-24T07:27:41.485Z,225.00
2019-03-24T07:28:41.472Z,225.00
2019-03-24T07:29:41.458Z,225.00
2019-03-24T07:30:41.484Z,225.00
2019-03-24T07:31:41.490Z,225.00
2019-03-24T07:32:41.425Z,225.00
2019-03-24T07:33:41.419Z,225.00
2019-03-24T07:34:41.411Z,225.00
2019-03-24T07:35:41.400Z,225.00
2019-03-24T07:36:41.426Z,225.00
2019-03-24T07:37:41.584Z,225.00
2019-03-24T07:38:41.365Z,225.00
2019-03-24T07:39:41.351Z,225.00
2019-03-24T07:40:41.351Z,225.00
2019-03-24T07:41:41.337Z,225.00
2019-03-24T07:42:41.321Z,225.00
2019-03-24T07:43:41.364Z,225.00
2019-03-24T07:44:41.302Z,225.00
2019-03-24T07:45:41.311Z,225.00
2019-03-24T07:46:41.276Z,225.00
2019-03-24T07:47:41.270Z,225.00
2019-03-24T07:48:41.252Z,225.00
2019-03-24T07:49:41.300Z,225.00
2019-03-24T07:50:41.232Z,225.00
2019-03-24T07:51:41.223Z,225.00
2019-03-24T07:52:41.211Z,225.00
2019-03-24T07:53:41.203Z,225.00
2019-03-24T07:54:41.191Z,225.00
2019-03-24T07:55:41.332Z,225.00
2019-03-24T07:56:41.174Z,225.00
2019-03-24T07:57:41.162Z,225.00
2019-03-24T07:58:41.149Z,225.00
2019-03-24T07:59:41.140Z,225.00
2019-03-24T08:00:41.129Z,225.00
2019-03-24T08:01:41.216Z,225.00
2019-03-24T08:02:50.667Z,225.00
2019-03-24T08:03:42.192Z,225.00
2019-03-24T08:04:41.081Z,225.00
2019-03-24T08:05:41.078Z,219.37
2019-03-24T08:06:41.062Z,219.37
2019-03-24T08:07:41.097Z,219.37
2019-03-24T08:08:44.376Z,219.37
2019-03-24T08:09:41.032Z,219.37
2019-03-24T08:10:41.026Z,219.37
2019-03-24T08:11:41.012Z,219.37
2019-03-24T08:12:41.043Z,219.37
2019-03-24T08:13:52.943Z,219.37
2019-03-24T08:14:42.077Z,219.37
2019-03-24T08:15:40.965Z,219.37
2019-03-24T08:16:40.952Z,219.37
2019-03-24T08:17:40.943Z,219.37
2019-03-24T08:18:40.936Z,219.37
2019-03-24T08:19:40.974Z,219.37
2019-03-24T08:20:40.909Z,219.37
2019-03-24T08:21:40.905Z,219.37
2019-03-24T08:22:40.900Z,219.37
2019-03-24T08:23:40.884Z,219.37
2019-03-24T08:24:40.871Z,213.75
2019-03-24T08:25:40.912Z,213.75
2019-03-24T08:26:40.852Z,213.75
2019-03-24T08:27:40.839Z,213.75
2019-03-24T08:28:40.831Z,213.75
2019-03-24T08:29:40.817Z,213.75
2019-03-24T08:30:40.808Z,213.75
2019-03-24T08:31:40.998Z,213.75
2019-03-24T08:32:40.790Z,213.75
2019-03-24T08:33:40.775Z,213.75
2019-03-24T08:34:40.766Z,213.75
2019-03-24T08:35:40.755Z,213.75
2019-03-24T08:36:40.746Z,213.75
2019-03-24T08:37:40.787Z,213.75
2019-03-24T08:38:40.727Z,213.75
2019-03-24T08:39:40.714Z,213.75
2019-03-24T08:40:40.705Z,213.75
2019-03-24T08:41:40.696Z,213.75
2019-03-24T08:42:40.680Z,213.75
2019-03-24T08:43:40.773Z,213.75
2019-03-24T08:44:40.660Z,213.75
2019-03-24T08:45:40.655Z,213.75
2019-03-24T08:46:40.640Z,213.75
2019-03-24T08:47:40.626Z,213.75
2019-03-24T08:48:41.354Z,213.75
2019-03-24T08:49:40.758Z,213.75
2019-03-24T08:50:40.594Z,213.75
2019-03-24T08:51:40.586Z,208.12
2019-03-24T08:52:40.577Z,208.12
2019-03-24T08:53:40.564Z,208.12
2019-03-24T08:54:40.558Z,208.12
2019-03-24T08:55:40.597Z,208.12
2019-03-24T08:56:40.533Z,208.12
2019-03-24T08:57:40.529Z,208.12
2019-03-24T08:58:40.517Z,208.12
2019-03-24T08:59:40.508Z,208.12
2019-03-24T09:00:40.495Z,208.12
2019-03-24T09:01:40.586Z,208.12
2019-03-24T09:02:40.472Z,208.12
2019-03-24T09:03:40.458Z,208.12
2019-03-24T09:04:40.454Z,208.12
2019-03-24T09:05:40.447Z,208.12
2019-03-24T09:06:40.432Z,208.12
2019-03-24T09:07:40.622Z,208.12
2019-03-24T09:08:40.411Z,208.12
2019-03-24T09:09:40.400Z,208.12
2019-03-24T09:10:40.387Z,208.12
2019-03-24T09:11:40.384Z,208.12
2019-03-24T09:12:40.368Z,208.12
2019-03-24T09:13:40.408Z,208.12
2019-03-24T09:14:40.348Z,208.12
2019-03-24T09:15:40.336Z,208.12
2019-03-24T09:16:40.325Z,208.12
2019-03-24T09:17:41.380Z,208.12
2019-03-24T09:18:51.751Z,208.12
2019-03-24T09:20:05.167Z,208.12
2019-03-24T09:21:05.153Z,202.50
2019-03-24T09:22:05.149Z,202.50
2019-03-24T09:23:05.128Z,202.50
2019-03-24T09:24:05.118Z,202.50
2019-03-24T09:25:05.255Z,202.50
2019-03-24T09:26:05.100Z,202.50
2019-03-24T09:27:05.093Z,202.50
2019-03-24T09:28:05.078Z,202.50
2019-03-24T09:29:05.075Z,202.50
2019-03-24T09:30:05.060Z,202.50
2019-03-24T09:31:05.144Z,202.50
2019-03-24T09:32:05.037Z,202.50
2019-03-24T09:33:05.028Z,202.50
2019-03-24T09:34:05.016Z,202.50
2019-03-24T09:35:05.004Z,202.50
2019-03-24T09:36:04.993Z,202.50
2019-03-24T09:37:05.030Z,202.50
2019-03-24T09:38:04.981Z,202.50
2019-03-24T09:39:04.964Z,202.50
2019-03-24T09:40:04.959Z,202.50
2019-03-24T09:41:04.950Z,202.50
2019-03-24T09:42:04.924Z,202.50
2019-03-24T09:43:05.126Z,202.50
2019-03-24T09:44:04.912Z,202.50
2019-03-24T09:45:04.897Z,202.50
2019-03-24T09:46:04.881Z,202.50
2019-03-24T09:47:04.872Z,202.50
2019-03-24T09:48:04.872Z,196.87
2019-03-24T09:49:04.901Z,196.87
2019-03-24T09:50:04.852Z,196.87
2019-03-24T09:51:04.831Z,196.87
2019-03-24T09:52:04.816Z,196.87
2019-03-24T09:53:04.807Z,196.87
2019-03-24T09:54:04.803Z,196.87
2019-03-24T09:55:04.889Z,196.87
2019-03-24T09:56:04.779Z,196.87
2019-03-24T09:57:04.766Z,196.87
2019-03-24T09:58:04.775Z,196.87
2019-03-24T09:59:04.743Z,196.87
2019-03-24T10:00:04.736Z,196.87
2019-03-24T10:01:04.876Z,196.87
2019-03-24T10:02:04.710Z,196.87
2019-03-24T10:03:04.704Z,196.87
2019-03-24T10:04:04.692Z,196.87
2019-03-24T10:05:04.677Z,196.87
2019-03-24T10:06:04.673Z,196.87
2019-03-24T10:07:04.713Z,196.87
2019-03-24T10:08:04.648Z,196.87
2019-03-24T10:09:04.638Z,196.87
2019-03-24T10:10:04.624Z,196.87
2019-03-24T10:11:04.614Z,196.87
2019-03-24T10:12:04.600Z,196.87
2019-03-24T10:13:04.691Z,196.87
2019-03-24T10:14:04.595Z,196.87
2019-03-24T10:15:04.568Z,196.87
2019-03-24T10:16:04.553Z,196.87
2019-03-24T10:17:04.551Z,196.87
2019-03-24T10:18:04.548Z,196.87
2019-03-24T10:19:13.502Z,191.25
2019-03-24T10:20:29.334Z,191.25
2019-03-24T10:21:29.325Z,191.25
2019-03-24T10:22:29.313Z,191.25
2019-03-24T10:23:29.301Z,191.25
2019-03-24T10:24:29.392Z,191.25
2019-03-24T10:25:29.291Z,191.25
2019-03-24T10:26:29.269Z,191.25
2019-03-24T10:27:29.256Z,191.25
2019-03-24T10:28:29.255Z,191.25
2019-03-24T10:29:29.238Z,191.25
2019-03-24T10:30:29.325Z,191.25
2019-03-24T10:31:29.218Z,191.25
2019-03-24T10:32:29.211Z,191.25
2019-03-24T10:33:29.196Z,191.25
2019-03-24T10:34:29.180Z,191.25
2019-03-24T10:35:29.178Z,191.25
2019-03-24T10:36:29.410Z,185.62
2019-03-24T10:37:29.159Z,185.62
2019-03-24T10:38:29.142Z,185.62
2019-03-24T10:39:29.130Z,185.62
2019-03-24T10:40:29.244Z,185.62
2019-03-24T10:41:29.114Z,185.62
2019-03-24T10:42:29.154Z,185.62
2019-03-24T10:43:29.090Z,185.62
2019-03-24T10:44:29.084Z,185.62
2019-03-24T10:45:29.071Z,185.62
2019-03-24T10:46:29.056Z,185.62
2019-03-24T10:47:29.074Z,185.62
2019-03-24T10:48:33.714Z,185.62
2019-03-24T10:49:29.028Z,185.62
2019-03-24T10:50:29.017Z,185.62
2019-03-24T10:51:29.009Z,185.62
2019-03-24T10:52:28.994Z,185.62
2019-03-24T10:53:28.991Z,185.62
2019-03-24T10:54:29.178Z,180.00
2019-03-24T10:55:28.968Z,180.00
2019-03-24T10:56:28.954Z,180.00
2019-03-24T10:57:28.947Z,180.00
2019-03-24T10:58:28.937Z,180.00
2019-03-24T10:59:28.924Z,180.00
2019-03-24T11:00:29.020Z,180.00
2019-03-24T11:01:28.904Z,180.00
2019-03-24T11:02:28.896Z,180.00
2019-03-24T11:03:28.883Z,180.00
2019-03-24T11:04:28.878Z,180.00
2019-03-24T11:05:28.863Z,180.00
2019-03-24T11:06:28.909Z,180.00
2019-03-24T11:07:28.843Z,174.37
2019-03-24T11:08:28.834Z,174.37
2019-03-24T11:09:28.821Z,174.37
2019-03-24T11:10:28.824Z,174.37
2019-03-24T11:11:28.805Z,174.37
2019-03-24T11:12:28.941Z,174.37
2019-03-24T11:13:28.784Z,174.37
2019-03-24T11:14:28.770Z,174.37
2019-03-24T11:15:28.767Z,174.37
2019-03-24T11:16:28.751Z,174.37
2019-03-24T11:17:28.740Z,174.37
2019-03-24T11:18:28.774Z,174.37
2019-03-24T11:19:35.588Z,174.37
2019-03-24T11:20:53.532Z,168.75
2019-03-24T11:21:53.517Z,168.75
2019-03-24T11:22:53.512Z,168.75
2019-03-24T11:23:53.547Z,168.75
2019-03-24T11:24:53.499Z,168.75
2019-03-24T11:25:53.479Z,168.75
2019-03-24T11:26:53.464Z,168.75
2019-03-24T11:27:53.457Z,163.12
2019-03-24T11:28:53.445Z,163.12
2019-03-24T11:29:53.636Z,163.12
2019-03-24T11:30:53.432Z,163.12
2019-03-24T11:31:53.418Z,163.12
2019-03-24T11:32:53.405Z,163.12
2019-03-24T11:33:53.394Z,163.12
2019-03-24T11:34:53.389Z,163.12
2019-03-24T11:35:53.423Z,163.12
2019-03-24T11:36:53.358Z,157.50
2019-03-24T11:37:53.353Z,157.50
2019-03-24T11:38:53.340Z,157.50
2019-03-24T11:39:53.325Z,157.50
2019-03-24T11:40:53.322Z,157.50
2019-03-24T11:41:53.410Z,157.50
2019-03-24T11:42:53.297Z,157.50
2019-03-24T11:43:53.294Z,151.87
2019-03-24T11:44:53.281Z,151.87
2019-03-24T11:45:53.270Z,151.87
2019-03-24T11:46:53.268Z,151.87
2019-03-24T11:47:53.397Z,151.87
2019-03-24T11:48:53.235Z,151.87
2019-03-24T11:49:53.230Z,151.87
2019-03-24T11:50:53.219Z,151.87
2019-03-24T11:51:53.206Z,151.87
2019-03-24T11:52:53.198Z,151.87
2019-03-24T11:53:53.236Z,151.87
2019-03-24T11:54:53.176Z,151.87
2019-03-24T11:55:53.165Z,151.87
2019-03-24T11:56:53.150Z,146.25
2019-03-24T11:57:53.145Z,146.25
2019-03-24T11:58:53.292Z,146.25
2019-03-24T11:59:53.227Z,146.25
2019-03-24T12:00:53.121Z,146.25
2019-03-24T12:01:53.103Z,146.25
2019-03-24T12:02:53.098Z,146.25
2019-03-24T12:03:53.084Z,140.62
2019-03-24T12:04:53.078Z,140.62
2019-03-24T12:05:53.209Z,140.62
2019-03-24T12:06:53.054Z,140.62
2019-03-24T12:07:53.049Z,140.62
2019-03-24T12:08:53.031Z,140.62
2019-03-24T12:09:53.022Z,140.62
2019-03-24T12:10:53.010Z,140.62
2019-03-24T12:11:53.105Z,140.62
2019-03-24T12:12:52.993Z,140.62
2019-03-24T12:13:52.981Z,140.62
2019-03-24T12:14:52.972Z,140.62
2019-03-24T12:15:52.952Z,135.00
2019-03-24T12:16:52.949Z,135.00
2019-03-24T12:17:52.988Z,135.00
2019-03-24T12:18:52.922Z,135.00
2019-03-24T12:19:56.973Z,135.00
2019-03-24T12:20:52.911Z,129.37
2019-03-24T12:21:52.896Z,129.37
2019-03-24T12:22:52.892Z,129.37
2019-03-24T12:23:53.082Z,129.37
2019-03-24T12:24:52.869Z,123.75
2019-03-24T12:25:52.858Z,123.75
2019-03-24T12:26:52.842Z,123.75
2019-03-24T12:27:52.840Z,123.75
2019-03-24T12:28:52.821Z,123.75
2019-03-24T12:29:52.952Z,118.12
2019-03-24T12:30:52.802Z,118.12
2019-03-24T12:31:52.791Z,118.12
2019-03-24T12:32:52.781Z,112.50
2019-03-24T12:33:52.776Z,112.50
2019-03-24T12:34:52.760Z,112.50